Time;durP1;ratioP1;P1;durP2;ratioP2;P2;SDS_P1;SDS_P2;PMS_P1;PMS_P2;Temp;Humidity;BMP_temperature;BMP_pressure;BME280_temperature;BME280_humidity;BME280_pressure;Samples;Min_cycle;Max_cycle;Signal;HPM_P1;HPM_P2
2022/04/07 00:00:44;;;;;;;6.40;5.25;;;;;;;13.84;nan;94174.25;4962053;28;20205;-69
2022/04/07 00:03:12;;;;;;;6.63;4.78;;;;;;;14.25;nan;94180.22;4959150;28;20736;-70
2022/04/07 00:05:39;;;;;;;7.07;5.03;;;;;;;14.61;nan;94150.72;4960566;28;20217;-69
2022/04/07 00:08:06;;;;;;;5.32;4.50;;;;;;;15.12;nan;94166.19;4960801;28;20205;-69
2022/04/07 00:10:33;;;;;;;13.93;8.77;;;;;;;15.19;nan;94167.41;4959483;28;20205;-70
2022/04/07 00:13:00;;;;;;;14.15;11.35;;;;;;;15.48;nan;94153.50;4959696;28;20241;-71
2022/04/07 00:15:27;;;;;;;7.78;5.50;;;;;;;15.37;nan;94148.28;4960403;28;20205;-68
2022/04/07 00:17:54;;;;;;;9.02;6.00;;;;;;;15.09;nan;94140.81;4960257;28;20555;-70
2022/04/07 00:20:22;;;;;;;7.43;5.03;;;;;;;14.76;nan;94129.28;4961208;28;20261;-69
2022/04/07 00:22:49;;;;;;;7.90;5.65;;;;;;;13.51;nan;94147.25;4959901;28;20209;-68
2022/04/07 00:25:16;;;;;;;6.97;6.05;;;;;;;14.03;nan;94148.41;4961717;28;20205;-68
2022/04/07 00:27:42;;;;;;;9.32;5.47;;;;;;;14.60;nan;94138.84;4959609;28;20260;-69
2022/04/07 00:30:13;;;;;;;6.68;4.97;;;;;;;14.87;nan;94124.28;4964850;28;20573;-68
2022/04/07 00:32:43;;;;;;;9.52;5.47;;;;;;;14.00;nan;94123.88;4961940;28;20210;-69
2022/04/07 00:35:10;;;;;;;7.88;6.10;;;;;;;13.50;nan;94107.34;4965092;28;20351;-68
2022/04/07 00:37:39;;;;;;;10.75;5.38;;;;;;;13.94;nan;94124.25;4963208;28;20296;-67
2022/04/07 00:40:08;;;;;;;10.07;6.53;;;;;;;14.38;nan;94120.63;4963970;28;20206;-69
2022/04/07 00:42:34;;;;;;;10.32;6.13;;;;;;;14.85;nan;94118.44;4964240;28;20264;-70
2022/04/07 00:45:02;;;;;;;13.73;6.03;;;;;;;14.83;nan;94125.44;4963493;28;20292;-70
2022/04/07 00:47:29;;;;;;;9.85;5.22;;;;;;;14.55;nan;94131.50;4963378;28;20233;-70
2022/04/07 00:49:56;;;;;;;9.20;6.32;;;;;;;14.39;nan;94135.06;4966618;28;20206;-68
2022/04/07 00:52:25;;;;;;;12.45;7.63;;;;;;;14.22;nan;94103.72;4964691;28;20209;-69
2022/04/07 00:54:53;;;;;;;9.15;6.68;;;;;;;14.23;nan;94113.03;4964318;28;20229;-70
2022/04/07 00:57:20;;;;;;;14.57;6.40;;;;;;;14.55;nan;94105.09;4961463;28;20217;-68
2022/04/07 00:59:47;;;;;;;11.48;5.68;;;;;;;14.38;nan;94097.63;4963387;28;20260;-69
2022/04/07 01:02:14;;;;;;;8.20;5.75;;;;;;;14.42;nan;94094.00;4963980;28;20703;-70
2022/04/07 01:04:42;;;;;;;7.18;6.28;;;;;;;14.90;nan;94093.38;4965387;28;20725;-69
2022/04/07 01:07:09;;;;;;;10.80;6.93;;;;;;;15.07;nan;94094.03;4962446;28;20241;-69
2022/04/07 01:09:36;;;;;;;9.07;6.18;;;;;;;14.06;nan;94097.13;4963306;28;20715;-70
2022/04/07 01:12:05;;;;;;;11.15;8.07;;;;;;;13.88;nan;94097.34;4966124;28;21038;-71
2022/04/07 01:14:32;;;;;;;14.13;7.68;;;;;;;13.88;nan;94094.78;4981344;28;20240;-69
2022/04/07 01:16:59;;;;;;;10.38;6.85;;;;;;;13.99;nan;94075.44;4982114;28;20236;-70
2022/04/07 01:19:26;;;;;;;8.63;6.38;;;;;;;14.20;nan;94069.78;4984223;28;20201;-69
2022/04/07 01:21:53;;;;;;;9.15;6.85;;;;;;;13.15;nan;94072.84;4981972;28;21308;-70
2022/04/07 01:24:28;;;;;;;23.77;12.25;;;;;;;13.85;nan;94063.53;4982612;28;20275;-69
2022/04/07 01:26:55;;;;;;;12.00;7.65;;;;;;;14.25;nan;94062.66;4980125;28;20349;-69
2022/04/07 01:29:25;;;;;;;11.85;6.50;;;;;;;14.62;nan;94060.31;4982803;28;20294;-69
2022/04/07 01:31:52;;;;;;;18.73;8.13;;;;;;;14.60;nan;94045.06;4984693;28;20208;-70
2022/04/07 01:34:20;;;;;;;7.63;5.75;;;;;;;14.90;nan;94039.66;4985645;28;20261;-71
2022/04/07 01:36:49;;;;;;;27.58;14.18;;;;;;;15.03;nan;94033.75;4985605;28;20201;-72
2022/04/07 01:39:21;;;;;;;8.52;5.72;;;;;;;14.92;nan;94022.47;4983292;28;20208;-71
2022/04/07 01:41:50;;;;;;;7.60;6.82;;;;;;;14.60;nan;94011.00;4984311;28;20213;-71
2022/04/07 01:44:19;;;;;;;8.10;6.43;;;;;;;14.32;nan;94014.53;4981237;28;20216;-71
2022/04/07 01:46:47;;;;;;;14.80;6.50;;;;;;;14.11;nan;94014.16;4985061;28;20201;-73
2022/04/07 01:49:14;;;;;;;9.90;6.90;;;;;;;14.09;nan;94000.69;4985892;28;20220;-72
2022/04/07 01:51:41;;;;;;;7.82;5.75;;;;;;;14.16;nan;94001.91;4985406;28;20208;-71
2022/04/07 01:54:11;;;;;;;8.23;7.03;;;;;;;14.17;nan;93995.88;4985993;28;20285;-71
2022/04/07 01:56:39;;;;;;;9.88;6.38;;;;;;;14.13;nan;93997.00;4985255;28;20435;-71
2022/04/07 01:59:09;;;;;;;13.43;6.63;;;;;;;13.57;nan;94003.97;4981458;28;20263;-72
2022/04/07 02:01:36;;;;;;;10.68;6.90;;;;;;;13.09;nan;93972.03;4985503;28;20207;-71
2022/04/07 02:04:03;;;;;;;10.32;5.97;;;;;;;12.93;nan;93995.06;4985244;28;20217;-70
2022/04/07 02:06:30;;;;;;;8.80;6.55;;;;;;;12.98;nan;93978.69;4986107;28;20250;-70
2022/04/07 02:08:57;;;;;;;14.85;6.65;;;;;;;13.32;nan;93980.88;4984954;28;20240;-70
2022/04/07 02:11:24;;;;;;;6.85;6.22;;;;;;;13.28;nan;93982.78;4982681;28;20215;-70
2022/04/07 02:13:53;;;;;;;9.07;6.05;;;;;;;12.40;nan;93979.56;4985824;28;20331;-71
2022/04/07 02:16:22;;;;;;;10.57;6.70;;;;;;;12.45;nan;93980.09;4986057;28;20200;-70
2022/04/07 02:18:49;;;;;;;12.52;7.25;;;;;;;12.58;nan;93975.97;4983207;28;20208;-70
2022/04/07 02:21:15;;;;;;;11.98;6.45;;;;;;;12.20;nan;93966.25;4980333;28;20216;-70
2022/04/07 02:23:43;;;;;;;8.63;5.45;;;;;;;12.05;nan;93948.47;4983083;28;20754;-71
2022/04/07 02:26:13;;;;;;;7.00;5.22;;;;;;;12.42;nan;93965.00;4982587;28;20208;-72
2022/04/07 02:28:40;;;;;;;7.80;4.75;;;;;;;12.72;nan;93963.22;4980219;28;20255;-72
2022/04/07 02:31:07;;;;;;;8.05;5.30;;;;;;;12.86;nan;93965.78;4982902;28;20208;-74
2022/04/07 02:33:36;;;;;;;8.23;4.55;;;;;;;12.80;nan;93960.22;4981411;28;20212;-70
2022/04/07 02:36:04;;;;;;;8.82;6.93;;;;;;;12.77;nan;93958.66;4981244;28;20270;-71
2022/04/07 02:38:32;;;;;;;10.77;4.95;;;;;;;12.57;nan;93943.75;4980583;28;20231;-70
2022/04/07 02:40:58;;;;;;;6.35;5.32;;;;;;;12.69;nan;93945.53;4981890;28;20253;-70
2022/04/07 02:43:25;;;;;;;5.95;5.28;;;;;;;12.72;nan;93937.72;4983382;28;21248;-70
2022/04/07 02:45:52;;;;;;;7.18;5.43;;;;;;;12.47;nan;93932.44;4982372;28;20215;-70
2022/04/07 02:48:18;;;;;;;12.85;6.57;;;;;;;12.35;nan;93933.16;4981189;28;20753;-71
2022/04/07 02:50:47;;;;;;;8.63;6.28;;;;;;;12.66;nan;93927.06;4980844;28;20318;-70
2022/04/07 02:53:14;;;;;;;10.30;6.05;;;;;;;12.74;nan;93923.16;4980424;28;20200;-70
2022/04/07 02:55:41;;;;;;;6.72;5.75;;;;;;;12.88;nan;93918.03;4982592;28;20236;-71
2022/04/07 02:58:08;;;;;;;9.88;6.40;;;;;;;12.42;nan;93896.22;4981613;28;20197;-70
2022/04/07 03:00:35;;;;;;;5.82;4.88;;;;;;;12.20;nan;93894.94;4980822;28;20213;-73
2022/04/07 03:03:02;;;;;;;5.70;4.07;;;;;;;12.42;nan;93888.56;4981821;28;20214;-70
2022/04/07 03:05:29;;;;;;;9.68;4.45;;;;;;;12.33;nan;93889.13;4981980;28;20865;-72
2022/04/07 03:07:57;;;;;;;6.50;3.85;;;;;;;12.30;nan;93897.75;4980762;28;22016;-73
2022/04/07 03:10:24;;;;;;;4.68;3.63;;;;;;;12.38;nan;93902.38;4981224;28;20204;-71
2022/04/07 03:12:50;;;;;;;3.88;3.58;;;;;;;12.21;nan;93906.75;4981219;28;20722;-71
2022/04/07 03:15:17;;;;;;;3.88;3.58;;;;;;;12.33;nan;93884.84;4980627;28;20246;-72
2022/04/07 03:17:44;;;;;;;3.95;3.30;;;;;;;12.00;nan;93874.91;4979583;28;20283;-71
2022/04/07 03:20:11;;;;;;;3.50;2.97;;;;;;;12.01;nan;93865.53;4981271;28;20258;-71
2022/04/07 03:22:38;;;;;;;3.92;3.15;;;;;;;12.10;nan;93863.28;4980903;28;21299;-71
2022/04/07 03:25:07;;;;;;;4.55;2.72;;;;;;;12.29;nan;93878.28;4980657;28;20206;-71
2022/04/07 03:27:34;;;;;;;3.70;2.95;;;;;;;12.30;nan;93874.84;4981523;28;20744;-71
2022/04/07 03:30:01;;;;;;;6.88;3.72;;;;;;;12.49;nan;93864.38;4980094;28;20274;-72
2022/04/07 03:32:28;;;;;;;8.90;3.55;;;;;;;12.29;nan;93869.84;4981592;28;20200;-73
2022/04/07 03:34:54;;;;;;;2.88;2.45;;;;;;;12.17;nan;93854.34;4978910;28;20236;-73
2022/04/07 03:37:21;;;;;;;5.28;3.50;;;;;;;12.33;nan;93863.66;4979703;28;20200;-69
2022/04/07 03:39:49;;;;;;;3.38;3.13;;;;;;;12.25;nan;93848.81;4979187;28;20201;-71
2022/04/07 03:42:18;;;;;;;4.10;3.80;;;;;;;12.29;nan;93839.25;4979168;28;20295;-71
2022/04/07 03:44:45;;;;;;;3.50;3.20;;;;;;;12.10;nan;93842.91;4979204;28;20713;-72
2022/04/07 03:47:11;;;;;;;6.85;3.35;;;;;;;12.15;nan;93827.34;4979387;28;20208;-70
2022/04/07 03:49:38;;;;;;;3.25;3.05;;;;;;;12.12;nan;93802.91;4977428;28;20203;-70
2022/04/07 03:52:06;;;;;;;4.43;3.60;;;;;;;11.87;nan;93779.81;4979688;28;20216;-73
2022/04/07 03:54:35;;;;;;;2.95;2.75;;;;;;;12.04;nan;93833.06;4978505;28;20251;-72
2022/04/07 03:57:03;;;;;;;4.20;2.92;;;;;;;11.99;nan;93784.16;4979855;28;20216;-71
2022/04/07 03:59:35;;;;;;;4.03;3.30;;;;;;;12.07;nan;93802.34;4979101;28;20248;-71
2022/04/07 04:02:05;;;;;;;4.80;3.78;;;;;;;12.07;nan;93794.72;4980320;28;20217;-71
2022/04/07 04:04:32;;;;;;;3.03;2.83;;;;;;;12.14;nan;93793.41;4985262;28;20207;-73
2022/04/07 04:06:58;;;;;;;8.30;3.45;;;;;;;12.33;nan;93807.63;4984261;28;20204;-71
2022/04/07 04:09:25;;;;;;;5.70;2.95;;;;;;;12.13;nan;93816.41;4983639;28;20224;-72
2022/04/07 04:11:52;;;;;;;4.80;3.55;;;;;;;12.05;nan;93834.72;4983657;28;20632;-70
2022/04/07 04:14:19;;;;;;;4.20;2.90;;;;;;;12.11;nan;93833.53;4984881;28;20228;-72
2022/04/07 04:16:48;;;;;;;3.47;3.17;;;;;;;12.32;nan;93842.47;4985076;28;20201;-70
2022/04/07 04:19:15;;;;;;;3.80;2.92;;;;;;;12.52;nan;93841.25;4983794;28;20209;-71
2022/04/07 04:21:42;;;;;;;3.65;3.15;;;;;;;12.18;nan;93835.63;4985140;28;20200;-72
2022/04/07 04:24:10;;;;;;;3.67;3.38;;;;;;;12.30;nan;93844.28;4983652;28;20204;-70
2022/04/07 04:26:37;;;;;;;4.65;3.33;;;;;;;11.99;nan;93840.16;4984080;28;20981;-70
2022/04/07 04:29:04;;;;;;;2.95;2.75;;;;;;;11.80;nan;93834.50;4983070;28;20235;-70
2022/04/07 04:31:30;;;;;;;5.13;3.53;;;;;;;11.73;nan;93843.34;4984601;28;20256;-71
2022/04/07 04:33:59;;;;;;;5.68;3.42;;;;;;;11.61;nan;93816.09;4984406;28;20307;-71
2022/04/07 04:36:26;;;;;;;3.53;3.38;;;;;;;11.93;nan;93835.41;4983640;28;20240;-69
2022/04/07 04:38:53;;;;;;;3.88;3.58;;;;;;;11.97;nan;93836.88;4983020;28;20258;-72
2022/04/07 04:41:19;;;;;;;3.85;3.55;;;;;;;11.93;nan;93822.69;4984637;28;20208;-74
2022/04/07 04:43:46;;;;;;;4.18;3.78;;;;;;;12.05;nan;93814.34;4984723;28;21729;-72
2022/04/07 04:46:13;;;;;;;5.32;3.85;;;;;;;11.98;nan;93825.78;4984087;28;20204;-73
2022/04/07 04:48:40;;;;;;;4.95;3.60;;;;;;;12.26;nan;93807.97;4982137;28;20212;-72
2022/04/07 04:51:08;;;;;;;3.97;3.67;;;;;;;12.14;nan;93818.88;4983710;28;20200;-71
2022/04/07 04:53:35;;;;;;;4.85;4.43;;;;;;;12.24;nan;93814.88;4982756;28;20217;-72
2022/04/07 04:56:01;;;;;;;4.72;4.13;;;;;;;12.34;nan;93820.25;4984347;28;20326;-71
2022/04/07 04:58:29;;;;;;;4.85;4.45;;;;;;;12.53;nan;93830.16;4983032;28;20208;-71
2022/04/07 05:00:57;;;;;;;7.57;4.93;;;;;;;12.48;nan;93832.16;4983250;28;20209;-71
2022/04/07 05:03:24;;;;;;;9.93;6.32;;;;;;;12.75;nan;93835.56;4983722;28;20204;-71
2022/04/07 05:05:50;;;;;;;16.05;6.15;;;;;;;12.76;nan;93827.00;4983104;28;20200;-69
2022/04/07 05:08:20;;;;;;;10.02;5.75;;;;;;;12.63;nan;93805.72;4982617;28;20224;-70
2022/04/07 05:10:47;;;;;;;14.45;7.20;;;;;;;11.98;nan;93805.44;4983199;28;20229;-71
2022/04/07 05:13:14;;;;;;;12.98;7.75;;;;;;;12.25;nan;93806.34;4983547;28;20232;-70
2022/04/07 05:15:40;;;;;;;14.57;7.53;;;;;;;12.23;nan;93805.59;4983704;28;20684;-71
2022/04/07 05:18:07;;;;;;;15.45;8.45;;;;;;;12.55;nan;93810.50;4981522;28;20270;-72
2022/04/07 05:20:35;;;;;;;18.70;8.98;;;;;;;13.16;nan;93807.50;4983401;28;20263;-71
2022/04/07 05:23:02;;;;;;;10.85;7.50;;;;;;;13.54;nan;93799.97;4981994;28;20687;-71
2022/04/07 05:25:30;;;;;;;11.65;7.50;;;;;;;14.09;nan;93811.66;4983615;28;20270;-71
2022/04/07 05:27:57;;;;;;;10.30;6.28;;;;;;;14.57;nan;93797.31;4981992;28;20206;-71
2022/04/07 05:30:24;;;;;;;15.77;8.13;;;;;;;15.09;nan;93800.50;4982500;28;20256;-70
2022/04/07 05:32:50;;;;;;;10.55;6.95;;;;;;;15.57;nan;93794.44;4983295;28;20201;-71
2022/04/07 05:35:17;;;;;;;13.60;7.13;;;;;;;15.47;nan;93803.69;4982965;28;20243;-71
2022/04/07 05:37:44;;;;;;;12.88;7.28;;;;;;;15.24;nan;93807.91;4981760;28;20208;-70
2022/04/07 05:40:13;;;;;;;10.75;7.43;;;;;;;14.39;nan;93813.84;4982131;28;20291;-72
2022/04/07 05:42:41;;;;;;;7.57;6.80;;;;;;;14.29;nan;93793.22;4982521;28;21100;-72
2022/04/07 05:45:09;;;;;;;11.20;8.10;;;;;;;14.14;nan;93796.00;4982548;28;20200;-70
2022/04/07 05:47:39;;;;;;;10.02;7.57;;;;;;;13.72;nan;93797.13;4982387;28;20208;-70
2022/04/07 05:50:07;;;;;;;12.68;7.03;;;;;;;13.25;nan;93793.38;4983289;28;20205;-71
2022/04/07 05:52:34;;;;;;;17.83;7.35;;;;;;;13.15;nan;93779.53;4981372;28;20208;-72
2022/04/07 05:55:01;;;;;;;18.92;7.30;;;;;;;13.17;nan;93775.16;4981687;28;20216;-70
2022/04/07 05:57:30;;;;;;;27.70;8.52;;;;;;;12.93;nan;93747.72;4981580;28;20288;-71
2022/04/07 06:00:05;;;;;;;16.52;6.55;;;;;;;13.03;nan;93763.28;4981567;28;21015;-72
2022/04/07 06:02:32;;;;;;;13.93;7.63;;;;;;;13.03;nan;93765.00;4981054;28;20218;-70
2022/04/07 06:04:59;;;;;;;12.98;7.25;;;;;;;13.13;nan;93763.50;4981792;28;20301;-72
2022/04/07 06:07:25;;;;;;;9.88;7.53;;;;;;;13.10;nan;93756.06;4980411;28;20296;-70
2022/04/07 06:09:52;;;;;;;6.93;5.80;;;;;;;13.11;nan;93765.34;4982515;28;20645;-72
2022/04/07 06:12:19;;;;;;;7.57;4.45;;;;;;;12.69;nan;93766.31;4981099;28;20232;-72
2022/04/07 06:14:46;;;;;;;5.00;4.28;;;;;;;12.45;nan;93751.63;4982570;28;21117;-72
2022/04/07 06:17:14;;;;;;;6.95;4.10;;;;;;;12.53;nan;93753.72;4981217;28;20247;-71
2022/04/07 06:19:41;;;;;;;11.88;4.55;;;;;;;12.59;nan;93758.44;4982172;28;20306;-72
2022/04/07 06:22:07;;;;;;;8.40;4.78;;;;;;;12.44;nan;93761.91;4981908;28;20235;-72
2022/04/07 06:24:34;;;;;;;9.65;4.60;;;;;;;12.34;nan;93735.38;4981887;28;20275;-71
2022/04/07 06:27:01;;;;;;;8.25;4.40;;;;;;;12.16;nan;93755.94;4979694;28;20215;-73
2022/04/07 06:29:28;;;;;;;10.00;4.43;;;;;;;12.14;nan;93757.75;4981995;28;20259;-72
2022/04/07 06:31:55;;;;;;;5.57;3.80;;;;;;;12.37;nan;93745.38;4981175;28;20271;-72
2022/04/07 06:34:23;;;;;;;6.40;4.20;;;;;;;12.10;nan;93746.16;4982322;28;20201;-72
2022/04/07 06:36:50;;;;;;;11.75;4.93;;;;;;;12.31;nan;93748.28;4980786;28;20699;-71
2022/04/07 06:39:17;;;;;;;9.88;5.30;;;;;;;12.35;nan;93747.19;4981990;28;20209;-71
2022/04/07 06:41:43;;;;;;;7.05;5.00;;;;;;;12.42;nan;93745.91;4981429;28;20231;-75
2022/04/07 06:44:10;;;;;;;4.72;4.20;;;;;;;12.36;nan;93741.19;4981550;28;20200;-72
2022/04/07 06:46:37;;;;;;;5.47;4.05;;;;;;;12.67;nan;93755.38;4981324;28;20278;-70
2022/04/07 06:49:06;;;;;;;5.55;4.50;;;;;;;12.77;nan;93747.09;4981902;28;20201;-72
2022/04/07 06:51:34;;;;;;;8.80;4.38;;;;;;;12.98;nan;93744.91;4982226;28;20208;-73
2022/04/07 06:54:00;;;;;;;7.93;4.47;;;;;;;13.08;nan;93750.25;4981154;28;20220;-73
2022/04/07 06:56:27;;;;;;;12.80;6.68;;;;;;;12.73;nan;93740.53;4980684;28;20321;-72
2022/04/07 06:58:54;;;;;;;12.13;5.88;;;;;;;12.55;nan;93741.69;4981582;28;21425;-71
2022/04/07 07:01:21;;;;;;;7.22;5.45;;;;;;;12.58;nan;93734.69;4980533;28;20204;-71
2022/04/07 07:03:48;;;;;;;9.98;4.80;;;;;;;12.27;nan;93743.38;4980712;28;20251;-73
2022/04/07 07:06:15;;;;;;;8.23;5.82;;;;;;;12.29;nan;93732.28;4982142;28;21131;-70
2022/04/07 07:08:43;;;;;;;8.60;5.55;;;;;;;12.38;nan;93724.06;4980056;28;20201;-71
2022/04/07 07:11:10;;;;;;;8.25;5.05;;;;;;;12.52;nan;93732.50;4981901;28;20687;-72
2022/04/07 07:13:37;;;;;;;6.28;4.65;;;;;;;12.37;nan;93727.56;4995853;28;20236;-71
2022/04/07 07:16:05;;;;;;;8.88;5.20;;;;;;;12.36;nan;93746.28;5009369;28;20224;-72
2022/04/07 07:18:32;;;;;;;8.38;5.30;;;;;;;12.57;nan;93744.97;5009235;28;20193;-71
2022/04/07 07:20:59;;;;;;;12.60;4.75;;;;;;;12.58;nan;93746.59;5008962;28;20223;-72
2022/04/07 07:23:25;;;;;;;10.02;4.55;;;;;;;12.56;nan;93712.75;5009168;28;20197;-71
2022/04/07 07:25:53;;;;;;;4.65;4.18;;;;;;;12.88;nan;93738.75;5007250;28;20211;-71
2022/04/07 07:28:20;;;;;;;7.50;5.43;;;;;;;12.76;nan;93734.44;5009047;28;20319;-71
2022/04/07 07:30:47;;;;;;;6.47;4.30;;;;;;;12.31;nan;93731.28;5009130;28;20238;-73
2022/04/07 07:33:14;;;;;;;5.72;4.72;;;;;;;12.36;nan;93720.81;5008995;28;20251;-72
2022/04/07 07:35:43;;;;;;;4.57;4.18;;;;;;;12.26;nan;93716.28;5008986;28;20232;-72
2022/04/07 07:38:10;;;;;;;4.95;4.55;;;;;;;12.31;nan;93713.44;5011449;28;20287;-71
2022/04/07 07:40:36;;;;;;;6.75;4.90;;;;;;;12.49;nan;93697.03;5015275;28;20204;-70
2022/04/07 07:43:05;;;;;;;14.02;4.68;;;;;;;12.76;nan;93697.00;5015009;28;20258;-71
2022/04/07 07:45:33;;;;;;;8.27;5.20;;;;;;;12.96;nan;93703.38;5015253;28;20723;-72
2022/04/07 07:48:00;;;;;;;8.40;5.03;;;;;;;13.22;nan;93692.34;5014548;28;20200;-70
2022/04/07 07:50:27;;;;;;;7.03;5.30;;;;;;;13.38;nan;93689.59;5015044;28;20200;-71
2022/04/07 07:52:54;;;;;;;9.20;4.97;;;;;;;13.41;nan;93697.03;5014555;28;20585;-70
2022/04/07 07:55:21;;;;;;;7.05;5.85;;;;;;;13.31;nan;93690.94;5015350;28;20698;-73
2022/04/07 07:57:48;;;;;;;12.88;4.80;;;;;;;13.24;nan;93687.13;5015264;28;20228;-72
2022/04/07 08:00:17;;;;;;;6.53;4.72;;;;;;;13.19;nan;93681.50;5014684;28;20199;-73
2022/04/07 08:02:44;;;;;;;7.28;4.70;;;;;;;13.19;nan;93668.75;5014343;28;20200;-71
2022/04/07 08:05:13;;;;;;;10.48;5.03;;;;;;;13.34;nan;93664.41;5014983;28;20203;-71
2022/04/07 08:07:41;;;;;;;9.50;4.57;;;;;;;13.87;nan;93658.19;5015333;28;20571;-72
2022/04/07 08:10:09;;;;;;;12.55;4.53;;;;;;;14.27;nan;93651.16;5015131;28;20201;-72
2022/04/07 08:12:36;;;;;;;6.13;4.07;;;;;;;14.33;nan;93655.03;5011806;28;20302;-72
2022/04/07 08:15:04;;;;;;;7.65;4.55;;;;;;;14.13;nan;93654.66;4985881;28;20749;-74
2022/04/07 08:17:33;;;;;;;10.25;4.65;;;;;;;14.38;nan;93650.38;4986588;28;20232;-74
2022/04/07 08:20:00;;;;;;;6.47;5.05;;;;;;;14.36;nan;93645.38;4986857;28;20205;-72
2022/04/07 08:22:27;;;;;;;10.50;4.53;;;;;;;14.38;nan;93656.31;4987148;28;20204;-72
2022/04/07 08:24:55;;;;;;;6.05;4.53;;;;;;;14.10;nan;93649.78;4986015;28;20204;-71
2022/04/07 08:27:23;;;;;;;218.98;98.32;;;;;;;14.18;nan;93637.28;4985873;28;20303;-71
2022/04/07 08:29:50;;;;;;;5.40;4.90;;;;;;;14.15;nan;93636.69;4987354;28;20749;-71
2022/04/07 08:32:17;;;;;;;6.07;4.10;;;;;;;14.50;nan;93639.34;4987352;28;20890;-72
2022/04/07 08:34:46;;;;;;;4.88;4.43;;;;;;;14.59;nan;93633.59;4988030;28;20262;-72
2022/04/07 08:37:12;;;;;;;5.57;3.83;;;;;;;14.29;nan;93632.25;4987154;28;20239;-72
2022/04/07 08:39:39;;;;;;;6.28;4.15;;;;;;;14.20;nan;93625.22;4970408;28;20286;-73
2022/04/07 08:42:07;;;;;;;7.82;3.22;;;;;;;13.92;nan;93630.63;4985543;28;20760;-71
2022/04/07 08:44:34;;;;;;;7.35;3.80;;;;;;;13.52;nan;93633.34;4985607;28;20290;-73
2022/04/07 08:47:01;;;;;;;5.43;4.07;;;;;;;13.75;nan;93634.34;4986532;28;20680;-72
2022/04/07 08:49:31;;;;;;;9.73;4.85;;;;;;;13.99;nan;93639.50;4983611;28;20215;-72
2022/04/07 08:52:00;;;;;;;6.63;4.05;;;;;;;14.37;nan;93625.75;4983368;28;20283;-72
2022/04/07 08:54:26;;;;;;;5.43;4.00;;;;;;;14.32;nan;93622.75;4982018;28;20220;-72
2022/04/07 08:56:53;;;;;;;4.40;3.72;;;;;;;14.00;nan;93628.34;4982248;28;20726;-71
2022/04/07 08:59:20;;;;;;;7.25;4.30;;;;;;;13.96;nan;93621.81;4982843;28;20287;-73
2022/04/07 09:01:47;;;;;;;10.52;4.75;;;;;;;13.89;nan;93620.63;4984569;28;20734;-72
2022/04/07 09:04:14;;;;;;;6.15;4.65;;;;;;;14.17;nan;93625.44;4984263;28;22251;-72
2022/04/07 09:06:43;;;;;;;4.25;3.95;;;;;;;14.70;nan;93623.38;4984411;28;20627;-73
2022/04/07 09:09:12;;;;;;;5.32;4.75;;;;;;;14.66;nan;93626.28;4983919;28;20742;-71
2022/04/07 09:11:39;;;;;;;4.60;3.80;;;;;;;14.68;nan;93598.84;4985086;28;20677;-71
2022/04/07 09:14:06;;;;;;;5.30;4.82;;;;;;;14.93;nan;93627.63;4984430;28;20585;-75
2022/04/07 09:16:33;;;;;;;10.13;6.30;;;;;;;14.97;nan;93641.84;4983004;28;20232;-71
2022/04/07 09:19:01;;;;;;;11.55;5.22;;;;;;;14.69;nan;93623.50;4979306;28;20219;-71
2022/04/07 09:21:28;;;;;;;6.40;3.92;;;;;;;14.24;nan;93630.94;4983253;28;20275;-71
2022/04/07 09:23:56;;;;;;;5.95;5.38;;;;;;;13.99;nan;93654.00;4984765;28;20211;-74
2022/04/07 09:26:24;;;;;;;5.75;4.40;;;;;;;14.00;nan;93669.22;4983635;28;20197;-70
2022/04/07 09:28:56;;;;;;;13.13;4.85;;;;;;;14.08;nan;93661.84;4984067;28;20699;-71
2022/04/07 09:31:23;;;;;;;6.10;4.47;;;;;;;13.87;nan;93653.09;4985303;28;20224;-72
2022/04/07 09:33:54;;;;;;;5.80;4.97;;;;;;;13.24;nan;93636.13;4983851;28;20227;-71
2022/04/07 09:36:21;;;;;;;9.15;4.97;;;;;;;13.10;nan;93639.56;4983496;28;20711;-72
2022/04/07 09:38:51;;;;;;;5.93;5.38;;;;;;;13.14;nan;93642.69;4983128;28;21501;-74
2022/04/07 09:41:19;;;;;;;7.38;5.97;;;;;;;13.34;nan;93655.00;4983727;28;20197;-71
2022/04/07 09:43:48;;;;;;;6.60;4.75;;;;;;;13.50;nan;93645.41;4984072;28;20197;-71
2022/04/07 09:46:17;;;;;;;4.38;4.07;;;;;;;13.31;nan;93646.75;4983679;28;20743;-73
2022/04/07 09:49:05;;;;;;;9.25;4.90;;;;;;;13.48;nan;93647.25;4983843;28;20192;-72
2022/04/07 09:51:38;;;;;;;6.03;4.10;;;;;;;13.65;nan;93652.94;4983375;28;20207;-71
2022/04/07 09:54:09;;;;;;;6.07;5.30;;;;;;;13.91;nan;93659.63;4984254;28;20219;-72
2022/04/07 09:56:36;;;;;;;17.95;8.52;;;;;;;14.06;nan;93681.59;4983706;28;20236;-73
2022/04/07 09:59:06;;;;;;;8.45;6.05;;;;;;;14.21;nan;93680.50;4980653;28;20212;-71
2022/04/07 10:01:33;;;;;;;16.67;6.10;;;;;;;14.24;nan;93680.28;4981895;28;20235;-72
2022/04/07 10:04:02;;;;;;;9.70;7.38;;;;;;;13.70;nan;93656.00;4998289;28;20201;-72
2022/04/07 10:06:31;;;;;;;15.85;7.10;;;;;;;13.45;nan;93678.06;5004720;28;20204;-73
2022/04/07 10:09:00;;;;;;;10.30;6.55;;;;;;;13.40;nan;93680.09;5006632;28;20236;-71
2022/04/07 10:11:29;;;;;;;12.63;7.85;;;;;;;13.21;nan;93680.50;5006596;28;20208;-70
2022/04/07 10:13:57;;;;;;;12.27;6.85;;;;;;;13.08;nan;93684.75;4997552;28;20232;-73
2022/04/07 10:16:26;;;;;;;14.43;6.78;;;;;;;13.11;nan;93683.75;5003870;28;20698;-72
2022/04/07 10:18:58;;;;;;;15.35;7.25;;;;;;;13.06;nan;93681.47;5008269;28;20208;-71
2022/04/07 10:21:39;;;;;;;16.02;8.27;;;;;;;13.13;nan;93672.50;5002108;28;20283;-72
2022/04/07 10:24:28;;;;;;;16.27;9.48;;;;;;;13.07;nan;93664.44;5001045;28;20197;-71
2022/04/07 10:26:56;;;;;;;14.10;8.48;;;;;;;13.22;nan;93676.22;4991984;28;20224;-69
2022/04/07 10:29:25;;;;;;;13.13;8.73;;;;;;;13.25;nan;93670.91;5010684;28;20207;-72
2022/04/07 10:32:22;;;;;;;16.50;8.57;;;;;;;13.23;nan;93675.31;5010923;28;20574;-72
2022/04/07 10:34:57;;;;;;;8.88;7.00;;;;;;;13.02;nan;93649.44;4991684;28;20267;-72
2022/04/07 10:37:42;;;;;;;13.50;8.23;;;;;;;13.21;nan;93675.41;4992191;28;20278;-70
2022/04/07 10:40:44;;;;;;;18.08;12.25;;;;;;;13.22;nan;93666.00;4991651;28;20201;-71
2022/04/07 10:43:20;;;;;;;10.50;8.02;;;;;;;13.12;nan;93657.28;4991787;28;20240;-71
2022/04/07 10:45:49;;;;;;;14.07;7.47;;;;;;;12.94;nan;93657.59;4991763;28;20212;-71
2022/04/07 10:48:35;;;;;;;13.63;7.80;;;;;;;12.78;nan;93636.56;4991149;28;20204;-71
2022/04/07 10:51:04;;;;;;;12.00;6.40;;;;;;;13.03;nan;93640.06;4991252;28;20727;-71
2022/04/07 10:53:32;;;;;;;10.32;7.20;;;;;;;13.06;nan;93644.97;4991533;28;20197;-73
2022/04/07 10:56:06;;;;;;;8.13;6.38;;;;;;;13.17;nan;93639.97;4991372;28;20208;-71
2022/04/07 10:58:55;;;;;;;9.25;6.22;;;;;;;13.37;nan;93639.47;4991530;28;20220;-72
2022/04/07 11:01:53;;;;;;;12.73;6.95;;;;;;;13.54;nan;93630.69;4991527;28;20285;-72
2022/04/07 11:04:42;;;;;;;6.32;5.57;;;;;;;13.47;nan;93624.38;5008497;28;20259;-71
2022/04/07 11:07:22;;;;;;;9.00;6.53;;;;;;;13.75;nan;93633.53;5009005;28;20652;-71
2022/04/07 11:10:04;;;;;;;12.63;5.90;;;;;;;13.89;nan;93635.94;5010693;28;20196;-72
2022/04/07 11:12:33;;;;;;;6.13;5.55;;;;;;;13.80;nan;93611.06;5003608;28;20730;-73
2022/04/07 11:15:18;;;;;;;7.28;5.72;;;;;;;14.02;nan;93631.63;4991510;28;20570;-73
2022/04/07 11:17:52;;;;;;;7.00;5.63;;;;;;;13.79;nan;93614.53;4998760;28;20231;-70
2022/04/07 11:20:21;;;;;;;10.00;6.45;;;;;;;14.05;nan;93621.19;5010887;28;20188;-71
2022/04/07 11:22:51;;;;;;;11.57;5.90;;;;;;;14.04;nan;93609.34;5001735;28;20209;-72
2022/04/07 11:25:22;;;;;;;8.63;5.43;;;;;;;14.36;nan;93619.84;4990970;28;20204;-71
2022/04/07 11:28:07;;;;;;;13.13;6.00;;;;;;;14.45;nan;93618.41;4990420;28;20258;-72
2022/04/07 11:30:39;;;;;;;15.65;9.63;;;;;;;14.47;nan;93621.66;4991096;28;20189;-71
2022/04/07 11:33:26;;;;;;;6.00;5.43;;;;;;;14.15;nan;93619.63;4990825;28;20263;-71
2022/04/07 11:36:14;;;;;;;8.07;5.60;;;;;;;13.75;nan;93618.22;4991255;28;20193;-70
2022/04/07 11:38:45;;;;;;;6.07;5.25;;;;;;;13.93;nan;93627.16;4990693;28;20228;-72
2022/04/07 11:41:14;;;;;;;9.45;5.80;;;;;;;14.04;nan;93622.13;4994059;28;20661;-71
2022/04/07 11:43:43;;;;;;;10.93;4.68;;;;;;;14.24;nan;93625.81;5010093;28;20196;-73
2022/04/07 11:46:10;;;;;;;10.57;5.55;;;;;;;14.03;nan;93617.13;5009267;28;20207;-71
2022/04/07 11:48:39;;;;;;;10.77;5.82;;;;;;;14.05;nan;93608.44;5010604;28;20192;-71
2022/04/07 11:51:12;;;;;;;9.82;6.00;;;;;;;14.13;nan;93613.78;5007386;28;20735;-73
2022/04/07 11:53:41;;;;;;;7.57;5.43;;;;;;;14.04;nan;93609.34;4990933;28;20204;-71